Time;durP1;ratioP1;P1;durP2;ratioP2;P2;SDS_P1;SDS_P2;PMS_P1;PMS_P2;Temp;Humidity;BMP_temperature;BMP_pressure;BME280_temperature;BME280_humidity;BME280_pressure;Samples;Min_cycle;Max_cycle;Signal;HPM_P1;HPM_P2
2023/08/03 00:01:28;;;;;;;;;8.00;8.00;;;;;23.00;47.93;98990.56;110032;1250;22944;-37
2023/08/03 00:03:53;;;;;;;;;8.00;8.00;;;;;23.04;47.89;99005.33;110002;1250;20482;-37
2023/08/03 00:06:19;;;;;;;;;9.00;9.00;;;;;23.02;48.17;98990.88;109887;1250;19424;-37
2023/08/03 00:08:45;;;;;;;;;9.00;8.50;;;;;23.02;47.92;98992.52;110043;1250;18535;-37
2023/08/03 00:11:11;;;;;;;;;9.00;9.00;;;;;22.96;48.15;98997.67;110051;1250;21652;-37
2023/08/03 00:13:37;;;;;;;;;8.00;8.00;;;;;23.06;47.67;99005.32;110057;1251;19402;-37
2023/08/03 00:16:03;;;;;;;;;6.00;6.00;;;;;23.11;47.78;99021.33;110065;1251;19977;-36
2023/08/03 00:18:29;;;;;;;;;8.00;8.00;;;;;23.16;47.54;99003.73;110037;1266;19171;-37
2023/08/03 00:20:55;;;;;;;;;9.00;9.00;;;;;23.14;47.75;98980.38;109969;1250;23060;-38
2023/08/03 00:23:21;;;;;;;;;10.50;9.00;;;;;23.10;47.68;98970.56;110006;1266;18632;-39
2023/08/03 00:25:47;;;;;;;;;9.00;8.00;;;;;23.15;47.74;98999.48;109981;1251;20462;-39
2023/08/03 00:28:13;;;;;;;;;8.00;7.00;;;;;23.17;47.48;99034.67;109981;1251;19747;-38
2023/08/03 00:30:40;;;;;;;;;8.00;8.00;;;;;23.22;47.51;99044.62;109981;1251;18823;-38
2023/08/03 00:33:05;;;;;;;;;9.00;9.00;;;;;23.24;47.42;99056.02;110035;1266;22637;-38
2023/08/03 00:35:31;;;;;;;;;9.00;9.00;;;;;23.27;47.52;99059.95;109985;1266;18183;-37
2023/08/03 00:37:57;;;;;;;;;8.00;6.00;;;;;23.19;47.61;99033.80;110012;1251;22252;-38
2023/08/03 00:40:23;;;;;;;;;6.00;6.00;;;;;23.10;48.06;99032.58;109992;1251;21762;-38
2023/08/03 00:42:49;;;;;;;;;7.00;7.00;;;;;23.02;48.19;99030.23;109986;1266;19371;-38
2023/08/03 00:45:15;;;;;;;;;8.00;8.00;;;;;22.99;48.28;99026.13;110024;1266;20105;-37
2023/08/03 00:47:41;;;;;;;;;9.50;9.50;;;;;23.01;48.47;99021.33;110025;1250;22972;-37
2023/08/03 00:50:07;;;;;;;;;9.00;9.00;;;;;23.01;48.29;99011.92;110046;1266;19723;-37
2023/08/03 00:52:33;;;;;;;;;10.00;9.00;;;;;23.05;48.36;99009.14;110042;1266;21663;-38
2023/08/03 00:54:59;;;;;;;;;8.00;8.00;;;;;23.11;48.25;99012.56;110040;1250;22685;-38
2023/08/03 00:57:25;;;;;;;;;8.00;6.00;;;;;23.10;48.40;99006.98;110045;1250;19936;-38
2023/08/03 00:59:51;;;;;;;;;8.00;8.00;;;;;23.10;48.35;99016.19;110068;1251;19791;-38
2023/08/03 01:02:17;;;;;;;;;8.00;6.00;;;;;23.14;48.48;99030.24;110035;1251;20502;-38
2023/08/03 01:04:43;;;;;;;;;9.00;8.00;;;;;23.16;48.33;99029.79;110039;1266;18115;-38
2023/08/03 01:07:09;;;;;;;;;8.00;8.00;;;;;23.20;48.04;99015.89;110054;1251;19797;-38
2023/08/03 01:09:34;;;;;;;;;10.00;6.00;;;;;23.18;48.29;99013.55;110060;1251;20510;-38
2023/08/03 01:12:00;;;;;;;;;9.00;9.00;;;;;23.09;48.55;99004.91;110056;1251;19434;-38
2023/08/03 01:14:26;;;;;;;;;8.00;8.00;;;;;23.10;48.72;99000.66;110033;1265;20513;-38
2023/08/03 01:16:52;;;;;;;;;8.00;8.00;;;;;23.04;48.76;99007.60;109984;1251;20607;-37
2023/08/03 01:19:18;;;;;;;;;9.00;8.00;;;;;23.08;48.72;99022.91;109991;1251;19363;-37
2023/08/03 01:21:44;;;;;;;;;8.00;8.00;;;;;23.09;48.84;99024.58;109951;1250;19964;-39
2023/08/03 01:24:10;;;;;;;;;8.00;8.00;;;;;23.10;48.93;99016.02;109921;1251;20514;-39
2023/08/03 01:26:36;;;;;;;;;12.00;9.00;;;;;23.07;48.85;98994.06;110075;1251;22838;-38
2023/08/03 01:29:02;;;;;;;;;7.00;6.00;;;;;23.04;49.01;98981.16;110050;1266;19519;-38
2023/08/03 01:31:29;;;;;;;;;10.00;9.00;;;;;22.99;49.48;98979.67;110020;1251;20638;-38
2023/08/03 01:33:55;;;;;;;;;8.00;8.00;;;;;23.05;49.25;98996.16;110071;1266;19799;-38
2023/08/03 01:36:21;;;;;;;;;9.00;8.00;;;;;23.06;49.19;98994.04;110048;1266;22750;-38
2023/08/03 01:38:47;;;;;;;;;8.00;8.00;;;;;23.05;49.36;98992.27;110040;1251;22821;-38
2023/08/03 01:41:13;;;;;;;;;9.00;8.00;;;;;23.05;49.37;99002.40;110013;1266;22416;-38
2023/08/03 01:43:39;;;;;;;;;9.50;9.50;;;;;23.06;49.35;99000.40;109994;1260;21201;-38
2023/08/03 01:46:05;;;;;;;;;9.00;9.00;;;;;23.03;49.55;98989.20;110031;1251;20580;-38
2023/08/03 01:48:31;;;;;;;;;10.00;8.00;;;;;23.06;49.52;98989.52;109982;1266;22308;-39
2023/08/03 01:50:58;;;;;;;;;12.00;11.00;;;;;23.03;49.39;98992.19;110101;1250;20143;-39
2023/08/03 01:53:23;;;;;;;;;12.00;9.00;;;;;23.11;49.59;98991.96;109993;1251;20552;-39
2023/08/03 01:55:49;;;;;;;;;8.00;6.00;;;;;23.11;49.71;98982.22;110021;1251;19795;-38
2023/08/03 01:58:15;;;;;;;;;9.00;8.50;;;;;23.09;49.48;98978.92;110021;1251;19837;-38
2023/08/03 02:00:41;;;;;;;;;10.00;9.00;;;;;23.12;49.87;98984.50;109906;1250;21546;-38
2023/08/03 02:03:07;;;;;;;;;9.00;8.00;;;;;23.10;49.98;98985.92;110085;1259;18729;-38
2023/08/03 02:05:33;;;;;;;;;10.00;10.00;;;;;23.15;49.74;98984.01;110068;1251;20161;-38
2023/08/03 02:07:59;;;;;;;;;6.00;6.00;;;;;23.16;49.90;98982.36;110064;1266;19219;-38
2023/08/03 02:10:25;;;;;;;;;9.00;9.00;;;;;23.14;50.07;98981.63;110026;1266;18636;-38
2023/08/03 02:12:51;;;;;;;;;6.00;6.00;;;;;23.16;50.14;98987.25;110003;1260;19768;-38
2023/08/03 02:15:17;;;;;;;;;9.00;8.00;;;;;23.18;50.01;98987.17;109907;1250;22037;-38
2023/08/03 02:17:43;;;;;;;;;6.00;6.00;;;;;23.15;50.39;98983.33;110072;1266;22969;-38
2023/08/03 02:20:09;;;;;;;;;8.00;8.00;;;;;23.20;50.31;98982.21;110036;1266;20170;-37
2023/08/03 02:22:35;;;;;;;;;9.50;9.00;;;;;23.23;50.56;98981.75;110061;1251;20814;-38
2023/08/03 02:25:01;;;;;;;;;8.00;8.00;;;;;23.22;50.70;98984.61;110022;1251;19488;-38
2023/08/03 02:27:27;;;;;;;;;8.00;8.00;;;;;23.24;50.56;98990.55;110017;1266;19618;-38
2023/08/03 02:29:53;;;;;;;;;5.00;5.00;;;;;23.26;50.76;98989.00;109867;1251;20564;-38
2023/08/03 02:32:19;;;;;;;;;6.00;6.00;;;;;23.25;51.18;98990.35;110013;1251;19322;-38
2023/08/03 02:34:45;;;;;;;;;8.00;6.00;;;;;23.24;51.28;98992.98;110030;1251;20162;-39
2023/08/03 02:37:11;;;;;;;;;6.00;6.00;;;;;23.26;51.40;98998.98;110036;1251;20634;-38
2023/08/03 02:39:37;;;;;;;;;5.00;5.00;;;;;23.26;51.46;98998.58;110012;1251;19442;-38
2023/08/03 02:42:03;;;;;;;;;6.00;6.00;;;;;23.26;51.28;98992.43;110001;1251;18378;-38
2023/08/03 02:44:29;;;;;;;;;7.00;6.00;;;;;23.23;51.70;98985.66;110007;1251;20444;-39
2023/08/03 02:46:55;;;;;;;;;7.00;7.00;;;;;23.24;51.49;98982.77;109989;1251;19354;-38
2023/08/03 02:49:20;;;;;;;;;6.00;6.00;;;;;23.27;51.39;98984.02;110001;1251;21033;-38
2023/08/03 02:51:46;;;;;;;;;11.50;9.50;;;;;23.23;51.50;98979.95;110014;1251;20526;-37
2023/08/03 02:54:12;;;;;;;;;7.50;5.50;;;;;23.22;51.55;98976.73;110001;1266;18322;-38
2023/08/03 02:56:38;;;;;;;;;7.00;7.00;;;;;23.23;51.59;98972.17;110013;1261;18731;-37
2023/08/03 02:59:04;;;;;;;;;5.00;5.00;;;;;23.24;51.66;98965.09;110019;1266;19109;-37
2023/08/03 03:01:31;;;;;;;;;6.00;6.00;;;;;23.23;51.99;98967.58;109989;1266;19233;-38
2023/08/03 03:03:57;;;;;;;;;6.00;6.00;;;;;23.26;52.00;98976.65;110014;1266;18683;-39
2023/08/03 03:06:23;;;;;;;;;7.00;6.00;;;;;23.22;52.10;98976.25;110003;1266;21804;-39
2023/08/03 03:08:49;;;;;;;;;5.00;5.00;;;;;23.22;52.42;98986.86;109938;1251;18221;-39
2023/08/03 03:11:15;;;;;;;;;8.00;6.00;;;;;23.18;52.52;98994.69;109936;1250;18395;-38
2023/08/03 03:13:41;;;;;;;;;7.50;7.00;;;;;23.21;52.73;98997.92;109937;1266;20367;-39
2023/08/03 03:16:07;;;;;;;;;6.00;6.00;;;;;23.22;52.91;98996.95;109951;1250;19533;-38
2023/08/03 03:18:33;;;;;;;;;6.00;6.00;;;;;23.24;53.04;98991.73;109929;1250;19849;-39
2023/08/03 03:20:58;;;;;;;;;6.00;6.00;;;;;23.25;53.31;98997.45;109933;1266;20533;-38
2023/08/03 03:23:24;;;;;;;;;5.00;5.00;;;;;23.25;53.47;98995.59;109930;1266;18229;-38
2023/08/03 03:25:50;;;;;;;;;5.00;5.00;;;;;23.27;53.65;98997.05;109925;1251;19915;-38
2023/08/03 03:28:16;;;;;;;;;6.00;5.50;;;;;23.27;53.84;99001.11;109955;1266;20528;-38
2023/08/03 03:30:42;;;;;;;;;9.00;9.00;;;;;23.26;53.86;99000.15;109959;1261;23267;-38
2023/08/03 03:33:08;;;;;;;;;5.00;5.00;;;;;23.25;53.87;98999.86;109936;1251;19939;-38
2023/08/03 03:35:34;;;;;;;;;4.00;4.00;;;;;23.26;53.96;99000.08;109943;1266;20707;-38
2023/08/03 03:38:00;;;;;;;;;6.00;6.00;;;;;23.26;53.82;99001.86;109894;1266;22809;-38
2023/08/03 03:40:28;;;;;;;;;6.00;6.00;;;;;23.24;54.11;98999.35;109961;1258;20750;-39
2023/08/03 03:42:53;;;;;;;;;5.00;5.00;;;;;23.26;54.09;99002.66;109986;1266;19459;-39
2023/08/03 03:45:19;;;;;;;;;5.00;5.00;;;;;23.26;53.96;99006.87;109932;1251;19346;-37
2023/08/03 03:47:45;;;;;;;;;5.00;4.00;;;;;23.31;54.06;99012.60;109945;1261;18543;-38
2023/08/03 03:50:11;;;;;;;;;3.00;3.00;;;;;23.31;54.15;99003.91;109935;1251;20684;-38
2023/08/03 03:52:37;;;;;;;;;5.00;3.50;;;;;23.28;54.41;99005.77;109912;1259;20115;-38
2023/08/03 03:55:03;;;;;;;;;5.50;5.50;;;;;23.25;54.33;99016.41;109923;1266;18656;-38
2023/08/03 03:57:29;;;;;;;;;5.00;5.00;;;;;23.27;54.30;99019.75;109901;1250;22093;-37
2023/08/03 03:59:55;;;;;;;;;3.00;3.00;;;;;23.25;54.31;99020.17;109981;1250;22313;-38
2023/08/03 04:02:21;;;;;;;;;5.00;5.00;;;;;23.29;54.32;99023.81;109966;1266;18753;-37
2023/08/03 04:04:47;;;;;;;;;5.00;3.50;;;;;23.31;54.35;99031.79;109952;1266;19461;-38
2023/08/03 04:07:13;;;;;;;;;3.00;3.00;;;;;23.27;54.33;99036.72;109947;1266;19816;-38
2023/08/03 04:09:39;;;;;;;;;;;;;;;23.27;54.46;99039.45;109960;1251;19763;-38
2023/08/03 04:12:05;;;;;;;;;4.00;4.00;;;;;23.28;54.47;99039.41;109940;1266;19523;-38
2023/08/03 04:14:31;;;;;;;;;5.00;3.50;;;;;23.24;54.63;99034.35;109854;1266;18194;-38
2023/08/03 04:16:57;;;;;;;;;4.00;4.00;;;;;23.28;54.62;99036.59;109945;1251;19843;-37
2023/08/03 04:19:25;;;;;;;;;5.00;3.00;;;;;23.29;54.36;99032.89;109949;1266;19094;-38
2023/08/03 04:21:51;;;;;;;;;6.00;5.00;;;;;23.24;54.75;99037.83;109944;1266;19906;-38
2023/08/03 04:24:17;;;;;;;;;10.00;8.50;;;;;23.17;55.04;99040.67;109978;1266;18692;-39
2023/08/03 04:26:43;;;;;;;;;10.00;7.00;;;;;23.15;55.46;99048.95;109937;1251;20366;-38
2023/08/03 04:29:09;;;;;;;;;4.00;4.00;;;;;23.24;55.16;99053.61;109938;1266;19715;-38
2023/08/03 04:31:35;;;;;;;;;8.00;6.00;;;;;23.15;55.54;99061.77;109972;1251;20206;-38
2023/08/03 04:34:01;;;;;;;;;6.00;6.00;;;;;22.89;56.02;99070.48;109963;1266;20917;-38
2023/08/03 04:36:27;;;;;;;;;5.00;5.00;;;;;22.92;55.86;99086.66;109916;1251;20489;-38
2023/08/03 04:38:53;;;;;;;;;6.00;6.00;;;;;22.88;56.07;99079.01;109938;1259;19987;-38
2023/08/03 04:41:21;;;;;;;;;6.00;5.00;;;;;22.80;56.18;99079.95;109955;1266;19212;-38
2023/08/03 04:43:47;;;;;;;;;8.50;8.00;;;;;22.77;56.25;99085.89;109961;1258;19991;-38
2023/08/03 04:46:13;;;;;;;;;9.00;8.00;;;;;22.79;56.05;99086.81;109952;1266;18361;-37
2023/08/03 04:48:39;;;;;;;;;9.00;8.00;;;;;22.79;56.07;99089.15;109972;1251;20795;-38
2023/08/03 04:51:05;;;;;;;;;6.00;6.00;;;;;22.75;56.14;99102.05;109949;1266;18431;-38
2023/08/03 04:53:31;;;;;;;;;7.00;5.00;;;;;22.82;55.86;99100.65;109918;1266;19630;-38
2023/08/03 04:55:57;;;;;;;;;11.00;9.50;;;;;22.86;55.66;99090.70;109953;1266;22091;-37
2023/08/03 04:58:23;;;;;;;;;10.00;9.00;;;;;22.85;55.66;99090.34;109846;1250;20598;-38
2023/08/03 05:00:49;;;;;;;;;12.00;10.00;;;;;22.74;56.13;99093.79;109969;1260;18952;-37
2023/08/03 05:03:15;;;;;;;;;16.00;13.50;;;;;22.71;56.18;99090.46;109961;1251;22997;-38
2023/08/03 05:05:41;;;;;;;;;27.00;23.50;;;;;22.77;56.08;99083.20;109935;1250;19781;-38
2023/08/03 05:08:07;;;;;;;;;18.00;17.00;;;;;22.73;56.02;99084.16;109950;1251;20148;-39
2023/08/03 05:10:33;;;;;;;;;10.00;9.00;;;;;22.73;55.94;99083.94;109958;1251;20499;-38
2023/08/03 05:12:59;;;;;;;;;9.00;8.50;;;;;22.65;56.10;99096.48;109941;1251;19866;-38
2023/08/03 05:15:25;;;;;;;;;9.00;8.00;;;;;22.60;56.43;99096.56;109930;1266;19775;-38
2023/08/03 05:17:51;;;;;;;;;5.67;5.67;;;;;22.64;56.37;99101.39;109956;1251;20758;-37
2023/08/03 05:20:18;;;;;;;;;8.00;8.00;;;;;22.62;56.41;99101.48;109951;1251;19677;-38
2023/08/03 05:22:43;;;;;;;;;6.00;6.00;;;;;22.74;56.01;99102.14;109945;1251;19794;-38
2023/08/03 05:25:09;;;;;;;;;8.00;8.00;;;;;22.77;55.76;99095.11;109959;1266;20417;-38
2023/08/03 05:27:35;;;;;;;;;5.00;5.00;;;;;22.68;56.08;99100.27;109951;1266;18262;-38
2023/08/03 05:30:02;;;;;;;;;6.00;6.00;;;;;22.66;56.06;99094.32;109940;1261;18513;-38
2023/08/03 05:32:28;;;;;;;;;5.50;5.00;;;;;22.65;56.29;99088.64;109932;1250;21043;-38
2023/08/03 05:34:54;;;;;;;;;8.50;7.00;;;;;22.70;56.43;99089.05;109977;1266;20806;-38
2023/08/03 05:37:20;;;;;;;;;6.00;6.00;;;;;22.66;56.53;99087.55;109963;1260;19782;-37
2023/08/03 05:39:46;;;;;;;;;8.00;8.00;;;;;22.70;56.16;99098.88;109932;1266;18960;-39
2023/08/03 05:42:12;;;;;;;;;8.50;8.50;;;;;22.80;55.89;99103.05;109966;1266;21022;-38
2023/08/03 05:44:38;;;;;;;;;8.00;8.00;;;;;22.75;56.18;99112.78;109933;1250;18833;-38
2023/08/03 05:47:04;;;;;;;;;7.00;7.00;;;;;22.75;55.98;99125.98;109924;1251;20627;-38
2023/08/03 05:49:30;;;;;;;;;8.00;8.00;;;;;22.72;56.34;99139.34;109935;1266;18430;-37
2023/08/03 05:51:56;;;;;;;;;6.00;6.00;;;;;22.67;56.54;99144.58;109927;1259;20831;-38
2023/08/03 05:54:22;;;;;;;;;6.00;5.00;;;;;22.65;56.75;99149.96;109941;1266;19584;-37
2023/08/03 05:56:48;;;;;;;;;12.00;11.33;;;;;22.65;56.42;99160.63;109967;1266;20052;-38
2023/08/03 05:59:14;;;;;;;;;7.00;7.00;;;;;22.57;56.74;99163.00;109899;1266;19767;-38
2023/08/03 06:01:40;;;;;;;;;8.50;8.00;;;;;22.63;56.52;99166.70;109919;1251;20477;-38
2023/08/03 06:04:06;;;;;;;;;8.00;6.00;;;;;22.78;56.19;99159.73;109923;1266;19652;-38
2023/08/03 06:06:32;;;;;;;;;9.00;9.00;;;;;22.93;55.83;99161.22;109957;1260;20158;-38
2023/08/03 06:08:58;;;;;;;;;10.00;9.50;;;;;23.04;55.84;99160.48;109914;1260;22940;-39
2023/08/03 06:11:24;;;;;;;;;8.00;8.00;;;;;23.17;55.64;99162.89;109935;1266;19759;-39
2023/08/03 06:13:52;;;;;;;;;8.00;7.00;;;;;23.21;55.25;99171.65;109946;1250;19686;-39
2023/08/03 06:16:18;;;;;;;;;5.00;5.00;;;;;23.26;55.25;99178.42;109934;1261;19546;-37
2023/08/03 06:18:44;;;;;;;;;6.00;6.00;;;;;23.27;55.07;99192.02;109955;1260;19076;-38
2023/08/03 06:21:10;;;;;;;;;6.00;5.50;;;;;23.26;55.04;99196.94;109951;1250;19923;-38
2023/08/03 06:23:37;;;;;;;;;7.00;6.00;;;;;23.28;54.98;99202.14;109935;1260;21032;-38
2023/08/03 06:26:03;;;;;;;;;5.00;5.00;;;;;23.32;54.91;99202.72;109926;1266;19930;-38
2023/08/03 06:28:30;;;;;;;;;6.00;5.00;;;;;23.35;54.64;99205.09;109972;1250;21368;-38
2023/08/03 06:30:57;;;;;;;;;5.67;5.67;;;;;23.36;54.89;99199.20;109946;1260;20949;-38
2023/08/03 06:33:23;;;;;;;;;5.00;5.00;;;;;23.36;54.52;99193.06;109946;1266;20602;-38
2023/08/03 06:35:50;;;;;;;;;5.00;5.00;;;;;23.37;54.66;99179.66;109944;1260;18650;-38
2023/08/03 06:38:16;;;;;;;;;5.00;5.00;;;;;23.38;54.70;99179.08;109871;1266;20592;-38
2023/08/03 06:40:42;;;;;;;;;8.50;5.50;;;;;23.41;54.55;99172.80;109961;1260;19711;-38
2023/08/03 06:43:08;;;;;;;;;5.00;5.00;;;;;23.42;54.60;99165.30;109906;1266;20169;-38
2023/08/03 06:45:34;;;;;;;;;6.00;5.00;;;;;23.48;54.26;99156.86;109949;1266;20647;-38
2023/08/03 06:48:01;;;;;;;;;6.00;5.00;;;;;23.50;54.24;99152.26;109920;1260;18281;-38
2023/08/03 06:50:27;;;;;;;;;3.00;3.00;;;;;23.53;54.21;99151.32;109980;1266;20222;-39
2023/08/03 06:52:53;;;;;;;;;6.50;6.00;;;;;23.53;54.07;99159.52;109920;1266;20529;-38
2023/08/03 06:55:21;;;;;;;;;5.00;5.00;;;;;23.61;53.80;99165.79;109952;1266;19879;-39
2023/08/03 06:57:48;;;;;;;;;5.00;5.00;;;;;23.65;53.64;99165.96;109928;1266;19911;-39
2023/08/03 07:00:14;;;;;;;;;6.00;6.00;;;;;23.73;53.68;99167.31;109945;1266;20933;-39
2023/08/03 07:02:40;;;;;;;;;6.00;5.00;;;;;23.74;53.38;99173.62;109930;1260;19690;-38
2023/08/03 07:05:09;;;;;;;;;6.00;6.00;;;;;23.65;52.97;99176.42;109956;1261;18623;-37
2023/08/03 07:07:38;;;;;;;;;6.00;5.00;;;;;23.57;52.97;99180.30;109928;1258;19354;-37
2023/08/03 07:10:05;;;;;;;;;5.67;5.67;;;;;23.56;52.85;99186.53;109910;1266;22787;-37
2023/08/03 07:12:33;;;;;;;;;7.00;6.00;;;;;23.57;52.40;99189.23;109956;1266;18614;-38
2023/08/03 07:14:59;;;;;;;;;6.00;6.00;;;;;23.61;52.18;99193.83;109974;1250;19416;-38
2023/08/03 07:17:25;;;;;;;;;5.00;5.00;;;;;23.70;51.76;99200.23;110000;1259;18231;-38
2023/08/03 07:19:52;;;;;;;;;4.00;3.00;;;;;23.74;51.48;99196.26;109923;1252;18225;-38
2023/08/03 07:22:18;;;;;;;;;3.00;3.00;;;;;23.78;51.07;99198.14;110043;1251;21011;-38
2023/08/03 07:24:44;;;;;;;;;5.00;5.00;;;;;23.87;51.16;99200.22;110025;1250;19239;-38
2023/08/03 07:27:10;;;;;;;;;6.00;6.00;;;;;23.93;51.18;99207.40;110049;1265;18771;-38
2023/08/03 07:29:36;;;;;;;;;6.00;6.00;;;;;23.98;50.92;99213.14;110203;1265;22895;-38
2023/08/03 07:32:02;;;;;;;;;6.00;6.00;;;;;24.01;50.77;99218.83;109821;1265;507449;-39
2023/08/03 07:34:28;;;;;;;;;;;;;;;24.09;50.28;99226.67;110188;1265;21205;-38
2023/08/03 07:36:54;;;;;;;;;6.00;6.00;;;;;24.13;50.19;99239.65;110207;1265;19348;-38
2023/08/03 07:39:20;;;;;;;;;6.00;6.00;;;;;24.15;49.88;99238.90;110188;1251;22184;-38
2023/08/03 07:41:46;;;;;;;;;5.00;5.00;;;;;24.27;49.52;99233.20;110252;1265;19945;-38
2023/08/03 07:44:12;;;;;;;;;5.00;4.00;;;;;24.35;49.63;99231.72;110212;1265;20825;-38
2023/08/03 07:46:38;;;;;;;;;6.00;5.00;;;;;24.29;49.71;99233.30;110185;1265;19525;-39
2023/08/03 07:49:04;;;;;;;;;5.00;5.00;;;;;24.41;49.43;99242.60;110179;1265;23013;-39
2023/08/03 07:51:30;;;;;;;;;6.00;5.00;;;;;24.39;49.57;99241.13;110221;1251;20460;-38
2023/08/03 07:53:56;;;;;;;;;5.50;5.00;;;;;24.46;49.45;99236.10;110208;1265;22289;-38
2023/08/03 07:56:22;;;;;;;;;3.67;3.00;;;;;24.68;49.25;99235.38;110189;1265;18887;-38
2023/08/03 07:58:49;;;;;;;;;6.00;6.00;;;;;24.68;49.24;99231.83;110209;1265;20960;-38
2023/08/03 08:01:17;;;;;;;;;5.50;5.00;;;;;24.83;48.59;99227.02;110194;1265;18446;-38
2023/08/03 08:03:43;;;;;;;;;5.00;3.00;;;;;24.68;48.29;99225.67;110178;1265;20175;-38
2023/08/03 08:06:09;;;;;;;;;5.00;5.00;;;;;24.54;48.68;99227.45;110167;1265;20763;-38
2023/08/03 08:08:35;;;;;;;;;6.00;6.00;;;;;24.63;48.08;99218.69;110212;1265;20187;-37
2023/08/03 08:11:01;;;;;;;;;5.00;5.00;;;;;24.71;48.00;99211.87;110157;1265;20574;-38
2023/08/03 08:13:27;;;;;;;;;6.00;5.00;;;;;24.72;48.28;99214.15;110174;1265;21841;-38
2023/08/03 08:15:53;;;;;;;;;3.00;3.00;;;;;24.83;47.71;99224.37;110170;1265;18209;-38
2023/08/03 08:18:19;;;;;;;;;5.00;5.00;;;;;24.73;47.17;99227.33;110187;1250;23540;-38
2023/08/03 08:20:45;;;;;;;;;5.00;5.00;;;;;24.71;46.92;99227.71;110179;1250;20683;-37
2023/08/03 08:23:11;;;;;;;;;5.00;5.00;;;;;24.71;46.92;99233.98;110184;1250;19349;-39
2023/08/03 08:25:37;;;;;;;;;5.00;3.00;;;;;24.80;46.58;99243.24;110170;1265;20489;-38
2023/08/03 08:28:03;;;;;;;;;5.00;5.00;;;;;24.81;46.14;99244.95;110196;1249;20675;-38
2023/08/03 08:30:29;;;;;;;;;6.00;5.00;;;;;24.91;46.11;99247.03;110163;1251;22841;-38
2023/08/03 08:32:55;;;;;;;;;6.50;5.50;;;;;24.80;46.44;99241.70;110146;1250;22225;-38
2023/08/03 08:35:21;;;;;;;;;6.00;5.50;;;;;24.70;46.66;99244.45;110188;1265;20477;-38
2023/08/03 08:37:47;;;;;;;;;5.00;5.00;;;;;24.60;46.75;99244.67;110166;1250;18403;-37
2023/08/03 08:40:13;;;;;;;;;6.00;6.00;;;;;24.63;46.92;99242.14;110174;1251;19972;-38
2023/08/03 08:42:39;;;;;;;;;7.00;7.00;;;;;24.61;46.78;99237.68;110180;1265;19091;-38
2023/08/03 08:45:05;;;;;;;;;4.00;4.00;;;;;24.55;46.61;99235.11;110181;1265;18175;-38
2023/08/03 08:47:31;;;;;;;;;4.00;4.00;;;;;24.81;45.79;99234.53;110168;1250;19860;-38
2023/08/03 08:49:57;;;;;;;;;5.00;5.00;;;;;24.64;45.37;99230.05;110201;1265;20423;-38
2023/08/03 08:52:23;;;;;;;;;5.50;5.00;;;;;24.46;45.42;99233.90;110217;1265;18952;-38
2023/08/03 08:54:49;;;;;;;;;6.00;5.00;;;;;24.61;45.58;99232.20;110213;1265;22889;-38
2023/08/03 08:57:15;;;;;;;;;5.00;5.00;;;;;24.70;45.39;99241.39;110215;1265;19078;-38
2023/08/03 08:59:41;;;;;;;;;5.00;5.00;;;;;24.60;45.82;99233.98;110198;1251;20666;-38
2023/08/03 09:02:07;;;;;;;;;3.00;3.00;;;;;24.45;45.93;99224.48;110203;1250;20664;-38
2023/08/03 09:04:33;;;;;;;;;5.00;5.00;;;;;24.50;46.08;99226.09;110212;1249;20563;-38
2023/08/03 09:06:59;;;;;;;;;5.00;3.00;;;;;24.48;45.79;99221.72;110165;1249;22296;-38
2023/08/03 09:09:26;;;;;;;;;5.00;5.00;;;;;24.41;46.06;99217.80;110192;1249;22680;-38
2023/08/03 09:11:55;;;;;;;;;6.00;5.00;;;;;24.50;45.78;99216.08;110176;1266;19318;-38
2023/08/03 09:14:21;;;;;;;;;6.50;5.50;;;;;24.56;45.90;99209.73;110201;1251;19648;-38
2023/08/03 09:16:47;;;;;;;;;6.00;5.50;;;;;24.52;45.71;99213.29;110224;1250;22948;-39
2023/08/03 09:19:13;;;;;;;;;6.00;5.00;;;;;24.39;46.03;99205.07;110213;1251;20384;-38
2023/08/03 09:21:39;;;;;;;;;6.00;6.00;;;;;24.36;46.44;99209.40;110157;1265;19515;-38
2023/08/03 09:24:05;;;;;;;;;4.00;4.00;;;;;24.39;46.46;99211.48;110040;1266;19132;-38
2023/08/03 09:26:32;;;;;;;;;3.00;3.00;;;;;24.33;46.57;99213.05;110250;1265;19471;-38
2023/08/03 09:29:00;;;;;;;;;5.00;5.00;;;;;24.44;46.34;99223.81;109977;1251;18559;-38
2023/08/03 09:31:26;;;;;;;;;6.00;5.00;;;;;24.58;46.27;99225.36;110152;1265;19586;-38
2023/08/03 09:33:52;;;;;;;;;7.00;6.00;;;;;24.49;46.40;99226.09;110080;1265;19446;-38
2023/08/03 09:36:19;;;;;;;;;6.00;6.00;;;;;24.39;46.49;99221.11;110207;1265;20071;-38
2023/08/03 09:38:45;;;;;;;;;5.00;5.00;;;;;24.31;46.51;99226.02;110206;1265;19849;-38
2023/08/03 09:41:12;;;;;;;;;6.33;6.00;;;;;24.30;47.12;99234.13;110183;1265;19389;-38
2023/08/03 09:43:39;;;;;;;;;3.00;3.00;;;;;24.32;46.94;99241.30;110045;1266;19470;-38
2023/08/03 09:46:05;;;;;;;;;5.00;5.00;;;;;24.33;46.42;99243.93;110211;1265;18993;-38
2023/08/03 09:48:32;;;;;;;;;5.00;5.00;;;;;24.33;46.04;99247.98;110203;1265;19386;-38
2023/08/03 09:50:58;;;;;;;;;4.00;4.00;;;;;24.43;45.85;99241.30;110185;1265;18672;-37
2023/08/03 09:53:24;;;;;;;;;5.00;5.00;;;;;24.58;45.72;99248.10;110214;1265;18767;-38
2023/08/03 09:55:57;;;;;;;;;5.00;5.00;;;;;24.49;45.53;99247.31;110208;1265;19391;-38
2023/08/03 09:58:26;;;;;;;;;6.00;5.00;;;;;24.51;45.25;99239.19;110200;1265;20232;-38
2023/08/03 10:00:52;;;;;;;;;5.00;5.00;;;;;24.55;44.82;99241.61;110235;1250;19922;-38
2023/08/03 10:03:19;;;;;;;;;5.33;5.00;;;;;24.69;44.91;99248.09;110195;1265;19775;-38
2023/08/03 10:05:45;;;;;;;;;4.00;4.00;;;;;24.65;45.21;99250.60;110225;1265;20830;-39
2023/08/03 10:08:12;;;;;;;;;6.00;5.00;;;;;24.53;44.95;99244.95;110237;1265;22181;-39
2023/08/03 10:10:38;;;;;;;;;6.00;3.00;;;;;24.53;44.95;99242.95;110201;1265;20711;-39
2023/08/03 10:13:04;;;;;;;;;3.00;3.00;;;;;24.62;44.80;99244.21;110154;1266;18859;-39
2023/08/03 10:15:31;;;;;;;;;5.50;5.50;;;;;24.78;44.53;99239.89;110260;1265;18628;-39
2023/08/03 10:17:56;;;;;;;;;3.00;3.00;;;;;24.67;44.60;99239.40;110186;1265;20688;-39
2023/08/03 10:20:23;;;;;;;;;5.00;5.00;;;;;24.62;44.02;99239.67;110208;1257;19098;-38
2023/08/03 10:22:49;;;;;;;;;5.00;3.00;;;;;24.63;44.08;99235.95;110206;1265;19952;-39
2023/08/03 10:25:15;;;;;;;;;3.00;3.00;;;;;24.93;43.73;99239.06;110262;1265;19161;-39
2023/08/03 10:27:41;;;;;;;;;5.00;3.00;;;;;25.03;43.72;99237.58;110220;1265;18927;-39
2023/08/03 10:30:07;;;;;;;;;6.00;5.00;;;;;24.84;42.69;99246.64;110246;1265;18406;-39
2023/08/03 10:32:33;;;;;;;;;3.00;3.00;;;;;24.78;42.80;99243.20;110190;1265;19108;-38
2023/08/03 10:34:59;;;;;;;;;3.00;3.00;;;;;24.70;42.82;99253.91;110189;1251;19393;-38
2023/08/03 10:37:25;;;;;;;;;5.00;5.00;;;;;24.71;43.04;99262.63;110208;1250;22770;-39
2023/08/03 10:39:52;;;;;;;;;5.00;3.00;;;;;24.67;43.24;99263.31;110255;1251;20589;-39
2023/08/03 10:42:18;;;;;;;;;5.00;5.00;;;;;24.56;43.43;99262.03;110216;1265;22722;-39
2023/08/03 10:44:44;;;;;;;;;5.00;5.00;;;;;24.53;43.64;99259.91;110238;1265;24092;-39
2023/08/03 10:47:10;;;;;;;;;5.00;5.00;;;;;24.51;44.09;99257.84;110189;1250;22959;-38
2023/08/03 10:49:36;;;;;;;;;5.00;5.00;;;;;24.45;44.68;99253.88;110202;1251;23023;-38
2023/08/03 10:52:02;;;;;;;;;5.00;5.00;;;;;24.54;44.65;99259.75;110207;1265;20038;-39
2023/08/03 10:54:28;;;;;;;;;5.00;5.00;;;;;24.79;44.55;99255.72;110176;1265;19221;-39
2023/08/03 10:56:54;;;;;;;;;5.00;5.00;;;;;24.98;44.58;99250.92;110240;1251;19427;-39
2023/08/03 10:59:19;;;;;;;;;5.00;5.00;;;;;25.13;44.35;99250.46;110217;1251;20963;-39
2023/08/03 11:01:45;;;;;;;;;5.00;5.00;;;;;25.06;44.55;99248.95;110156;1250;21790;-38
2023/08/03 11:04:11;;;;;;;;;5.00;4.00;;;;;25.03;44.78;99251.24;110122;1265;22443;-39
2023/08/03 11:06:37;;;;;;;;;6.00;6.00;;;;;25.01;44.56;99252.77;110271;1251;22613;-39
2023/08/03 11:09:04;;;;;;;;;5.00;5.00;;;;;24.92;44.51;99252.47;110211;1265;22241;-38
2023/08/03 11:11:33;;;;;;;;;3.00;3.00;;;;;24.83;44.50;99256.66;110187;1249;19576;-39
2023/08/03 11:13:59;;;;;;;;;5.00;5.00;;;;;24.90;44.53;99260.55;110203;1265;22735;-39
2023/08/03 11:16:26;;;;;;;;;5.00;5.00;;;;;24.82;44.68;99251.86;110204;1265;19156;-38
2023/08/03 11:18:52;;;;;;;;;5.00;5.00;;;;;24.77;44.43;99248.64;110225;1250;19744;-39